createdAt,value
2017-03-26T00:00:25.267Z,1019.78
2017-03-26T00:00:51.370Z,1019.79
2017-03-26T00:01:17.490Z,1019.8
2017-03-26T00:01:43.614Z,1019.75
2017-03-26T00:02:09.783Z,1019.75
2017-03-26T00:02:35.874Z,1019.78
2017-03-26T00:03:01.997Z,1019.77
2017-03-26T00:03:28.206Z,1019.74
2017-03-26T00:03:54.405Z,1019.77
2017-03-26T00:04:20.649Z,1019.76
2017-03-26T00:04:46.766Z,1019.76
2017-03-26T00:05:12.971Z,1019.78
2017-03-26T00:05:39.076Z,1019.74
2017-03-26T00:06:05.315Z,1019.71
2017-03-26T00:06:31.485Z,1019.73
2017-03-26T00:06:57.657Z,1019.68
2017-03-26T00:07:23.805Z,1019.69
2017-03-26T00:07:49.942Z,1019.71
2017-03-26T00:08:16.120Z,1019.72
2017-03-26T00:08:42.313Z,1019.75
2017-03-26T00:09:08.449Z,1019.77
2017-03-26T00:09:34.622Z,1019.75
2017-03-26T00:10:00.824Z,1019.79
2017-03-26T00:10:26.922Z,1019.78
2017-03-26T00:10:53.065Z,1019.76
2017-03-26T00:11:19.173Z,1019.76
2017-03-26T00:11:45.301Z,1019.73
2017-03-26T00:12:11.430Z,1019.71
2017-03-26T00:12:37.534Z,1019.74
2017-03-26T00:13:03.693Z,1019.7
2017-03-26T00:13:29.860Z,1019.67
2017-03-26T00:13:55.941Z,1019.7
2017-03-26T00:14:22.090Z,1019.71
2017-03-26T00:14:48.195Z,1019.64
2017-03-26T00:15:14.344Z,1019.66
2017-03-26T00:15:40.512Z,1019.61
2017-03-26T00:16:06.637Z,1019.63
2017-03-26T00:16:32.809Z,1019.59
2017-03-26T00:16:58.905Z,1019.57
2017-03-26T00:17:24.985Z,1019.55
2017-03-26T00:17:51.113Z,1019.55
2017-03-26T00:18:17.265Z,1019.53
2017-03-26T00:18:43.349Z,1019.53
2017-03-26T00:19:09.458Z,1019.49
2017-03-26T00:19:35.610Z,1019.46
2017-03-26T00:20:01.763Z,1019.46
2017-03-26T00:20:27.889Z,1019.42
2017-03-26T00:20:53.974Z,1019.44
2017-03-26T00:21:20.172Z,1019.48
2017-03-26T00:21:46.269Z,1019.39
2017-03-26T00:22:12.460Z,1019.39
2017-03-26T00:22:38.675Z,1019.4
2017-03-26T00:23:04.866Z,1019.41
2017-03-26T00:23:30.995Z,1019.39
2017-03-26T00:23:57.235Z,1019.39
2017-03-26T00:24:23.332Z,1019.38
2017-03-26T00:24:49.503Z,1019.36
2017-03-26T00:25:15.630Z,1019.35
2017-03-26T00:25:41.794Z,1019.33
2017-03-26T00:26:07.878Z,1019.34
2017-03-26T00:26:34.008Z,1019.28
2017-03-26T00:27:00.197Z,1019.33
2017-03-26T00:27:26.313Z,1019.31
2017-03-26T00:27:52.477Z,1019.31
2017-03-26T00:28:18.658Z,1019.26
2017-03-26T00:28:44.939Z,1019.29
2017-03-26T00:29:11.084Z,1019.27
2017-03-26T00:29:37.206Z,1019.32
2017-03-26T00:30:03.434Z,1019.31
2017-03-26T00:30:29.590Z,1019.33
2017-03-26T00:30:55.725Z,1019.31
2017-03-26T00:31:21.932Z,1019.36
2017-03-26T00:31:48.056Z,1019.34
2017-03-26T00:32:14.155Z,1019.32
2017-03-26T00:32:40.306Z,1019.35
2017-03-26T00:33:06.459Z,1019.34
2017-03-26T00:33:32.644Z,1019.39
2017-03-26T00:33:58.816Z,1019.38
2017-03-26T00:34:24.961Z,1019.32
2017-03-26T00:34:51.047Z,1019.36
2017-03-26T00:35:17.257Z,1019.35
2017-03-26T00:35:43.359Z,1019.33
2017-03-26T00:36:09.614Z,1019.31
2017-03-26T00:36:35.795Z,1019.33
2017-03-26T00:37:01.874Z,1019.34
2017-03-26T00:37:27.988Z,1019.34
2017-03-26T00:37:54.143Z,1019.36
2017-03-26T00:38:20.316Z,1019.34
2017-03-26T00:38:46.517Z,1019.32
2017-03-26T00:39:12.631Z,1019.36
2017-03-26T00:39:38.747Z,1019.36
2017-03-26T00:40:04.921Z,1019.37
2017-03-26T00:40:31.149Z,1019.4
2017-03-26T00:40:57.284Z,1019.38
2017-03-26T00:41:23.413Z,1019.39
2017-03-26T00:41:49.575Z,1019.38
2017-03-26T00:42:15.695Z,1019.44
2017-03-26T00:42:41.872Z,1019.43
2017-03-26T00:43:08.025Z,1019.41
2017-03-26T00:43:34.220Z,1019.47
2017-03-26T00:44:00.337Z,1019.48
2017-03-26T00:44:26.452Z,1019.52
2017-03-26T00:44:52.641Z,1019.55
2017-03-26T00:45:18.871Z,1019.53
2017-03-26T00:45:44.955Z,1019.58
2017-03-26T00:46:11.195Z,1019.6
2017-03-26T00:46:37.263Z,1019.6
2017-03-26T00:47:03.420Z,1019.64
2017-03-26T00:47:29.604Z,1019.65
2017-03-26T00:47:55.837Z,1019.69
2017-03-26T00:48:22.065Z,1019.7
2017-03-26T00:48:48.358Z,1019.74
2017-03-26T00:49:14.562Z,1019.74
2017-03-26T00:49:40.678Z,1019.74
2017-03-26T00:50:06.902Z,1019.76
2017-03-26T00:50:33.032Z,1019.72
2017-03-26T00:50:59.136Z,1019.76
2017-03-26T00:51:25.217Z,1019.7
2017-03-26T00:51:51.320Z,1019.67
2017-03-26T00:52:17.422Z,1019.69
2017-03-26T00:52:43.550Z,1019.68
2017-03-26T00:53:09.677Z,1019.64
2017-03-26T00:53:35.830Z,1019.63
2017-03-26T00:54:01.953Z,1019.64
2017-03-26T00:54:28.081Z,1019.64
2017-03-26T00:54:54.190Z,1019.62
2017-03-26T00:55:20.312Z,1019.61
2017-03-26T00:55:46.439Z,1019.62
2017-03-26T00:56:12.520Z,1019.66
2017-03-26T00:56:38.599Z,1019.61
2017-03-26T00:57:04.679Z,1019.63
2017-03-26T00:57:30.806Z,1019.61
2017-03-26T00:57:56.961Z,1019.61
2017-03-26T00:58:23.086Z,1019.59
2017-03-26T00:58:49.236Z,1019.58
2017-03-26T00:59:15.338Z,1019.56
2017-03-26T00:59:41.417Z,1019.55
2017-03-26T01:00:07.520Z,1019.54
2017-03-26T01:00:33.599Z,1019.55
2017-03-26T01:00:59.680Z,1019.49
2017-03-26T01:01:25.759Z,1019.51
2017-03-26T01:01:51.888Z,1019.55
2017-03-26T01:02:18.016Z,1019.49
2017-03-26T01:02:44.122Z,1019.52
2017-03-26T01:03:10.296Z,1019.49
2017-03-26T01:03:36.449Z,1019.47
2017-03-26T01:04:02.578Z,1019.49
2017-03-26T01:04:28.683Z,1019.48
2017-03-26T01:04:54.764Z,1019.49
2017-03-26T01:05:20.911Z,1019.48
2017-03-26T01:05:47.014Z,1019.47
2017-03-26T01:06:13.117Z,1019.47
2017-03-26T01:06:39.201Z,1019.47
2017-03-26T01:07:05.328Z,1019.49
2017-03-26T01:07:31.474Z,1019.51
2017-03-26T01:07:57.584Z,1019.55
2017-03-26T01:08:23.709Z,1019.49
2017-03-26T01:08:49.839Z,1019.48
2017-03-26T01:09:15.965Z,1019.44
2017-03-26T01:09:42.090Z,1019.47
2017-03-26T01:10:08.191Z,1019.46
2017-03-26T01:10:34.272Z,1019.49
2017-03-26T01:11:00.350Z,1019.44
2017-03-26T01:11:26.474Z,1019.48
2017-03-26T01:11:52.600Z,1019.46
2017-03-26T01:12:18.682Z,1019.46
2017-03-26T01:12:44.780Z,1019.45
2017-03-26T01:13:10.907Z,1019.46
2017-03-26T01:13:37.037Z,1019.43
2017-03-26T01:14:03.190Z,1019.5
2017-03-26T01:14:29.319Z,1019.48
2017-03-26T01:14:55.423Z,1019.52
2017-03-26T01:15:21.528Z,1019.52
2017-03-26T01:15:47.633Z,1019.5
2017-03-26T01:16:13.757Z,1019.51
2017-03-26T01:16:39.899Z,1019.49
2017-03-26T01:17:05.980Z,1019.46
2017-03-26T01:17:32.085Z,1019.5
2017-03-26T01:17:58.260Z,1019.49
2017-03-26T01:18:24.379Z,1019.51
2017-03-26T01:18:50.528Z,1019.48
2017-03-26T01:19:16.686Z,1019.49
2017-03-26T01:19:42.826Z,1019.52
2017-03-26T01:20:08.975Z,1019.47
2017-03-26T01:20:35.130Z,1019.52
2017-03-26T01:21:01.237Z,1019.48
2017-03-26T01:21:27.361Z,1019.53
2017-03-26T01:21:53.641Z,1019.51
2017-03-26T01:22:19.747Z,1019.54
2017-03-26T01:22:45.852Z,1019.54
2017-03-26T01:23:11.980Z,1019.53
2017-03-26T01:23:38.108Z,1019.57
2017-03-26T01:24:04.303Z,1019.54
2017-03-26T01:24:30.453Z,1019.53
2017-03-26T01:24:56.602Z,1019.55
2017-03-26T01:25:22.731Z,1019.53
2017-03-26T01:25:48.814Z,1019.54
2017-03-26T01:26:14.927Z,1019.53
2017-03-26T01:26:41.003Z,1019.53
2017-03-26T01:27:07.102Z,1019.52
2017-03-26T01:27:33.184Z,1019.5
2017-03-26T01:27:59.333Z,1019.5
2017-03-26T01:28:25.435Z,1019.48
2017-03-26T01:28:51.586Z,1019.51
2017-03-26T01:29:17.711Z,1019.47
2017-03-26T01:29:43.861Z,1019.47
2017-03-26T01:30:09.964Z,1019.43
2017-03-26T01:30:36.070Z,1019.49
2017-03-26T01:31:02.175Z,1019.46
2017-03-26T01:31:28.254Z,1019.46
2017-03-26T01:31:54.336Z,1019.45
2017-03-26T01:32:20.439Z,1019.41
2017-03-26T01:32:46.565Z,1019.4
2017-03-26T01:33:12.674Z,1019.4
2017-03-26T01:33:38.795Z,1019.35
2017-03-26T01:34:04.960Z,1019.35
2017-03-26T01:34:31.062Z,1019.32
2017-03-26T01:34:57.215Z,1019.3
2017-03-26T01:35:23.321Z,1019.28
2017-03-26T01:35:49.425Z,1019.28
2017-03-26T01:36:15.532Z,1019.29
2017-03-26T01:36:41.638Z,1019.29
2017-03-26T01:37:07.764Z,1019.24
2017-03-26T01:37:33.893Z,1019.24
2017-03-26T01:38:00.021Z,1019.23
2017-03-26T01:38:26.167Z,1019.22
2017-03-26T01:38:52.297Z,1019.28
2017-03-26T01:39:18.425Z,1019.26
2017-03-26T01:39:44.552Z,1019.26
2017-03-26T01:40:10.658Z,1019.3
2017-03-26T01:40:36.759Z,1019.29
2017-03-26T01:41:02.865Z,1019.27
2017-03-26T01:41:28.946Z,1019.29
2017-03-26T01:41:55.029Z,1019.24
2017-03-26T01:42:21.106Z,1019.27
2017-03-26T01:42:47.230Z,1019.32
2017-03-26T01:43:13.330Z,1019.3
2017-03-26T01:43:39.458Z,1019.35
2017-03-26T01:44:05.609Z,1019.32
2017-03-26T01:44:31.711Z,1019.38
2017-03-26T01:44:57.816Z,1019.39
2017-03-26T01:45:23.920Z,1019.41
2017-03-26T01:45:50.000Z,1019.39
2017-03-26T01:46:16.106Z,1019.42
2017-03-26T01:46:42.184Z,1019.4
2017-03-26T01:47:08.333Z,1019.41
2017-03-26T01:47:34.414Z,1019.42
2017-03-26T01:48:00.566Z,1019.41
2017-03-26T01:48:26.716Z,1019.42
2017-03-26T01:48:52.845Z,1019.41
2017-03-26T01:49:18.971Z,1019.42
2017-03-26T01:49:45.077Z,1019.44
2017-03-26T01:50:11.204Z,1019.44
2017-03-26T01:50:37.327Z,1019.42
2017-03-26T01:51:03.407Z,1019.41
2017-03-26T01:51:29.512Z,1019.42
2017-03-26T01:51:55.964Z,1019.44
2017-03-26T01:52:22.115Z,1019.39
2017-03-26T01:52:48.247Z,1019.4
2017-03-26T01:53:14.354Z,1019.42
2017-03-26T01:53:40.458Z,1019.4
2017-03-26T01:54:06.608Z,1019.41
2017-03-26T01:54:32.715Z,1019.38
2017-03-26T01:54:58.870Z,1019.37
2017-03-26T01:55:24.969Z,1019.37
2017-03-26T01:55:51.071Z,1019.38
2017-03-26T01:56:17.148Z,1019.33
2017-03-26T01:56:43.252Z,1019.35
2017-03-26T01:57:09.333Z,1019.34
2017-03-26T01:57:35.462Z,1019.36
2017-03-26T01:58:01.586Z,1019.37
2017-03-26T01:58:27.734Z,1019.36
2017-03-26T01:58:53.907Z,1019.39
2017-03-26T01:59:20.053Z,1019.38
2017-03-26T01:59:46.158Z,1019.33
2017-03-26T02:00:12.310Z,1019.39
2017-03-26T02:00:38.391Z,1019.36
2017-03-26T02:01:04.496Z,1019.39
2017-03-26T02:01:30.600Z,1019.34
2017-03-26T02:01:56.679Z,1019.36
2017-03-26T02:02:22.781Z,1019.35
2017-03-26T02:02:48.884Z,1019.36
2017-03-26T02:03:15.036Z,1019.36
2017-03-26T02:03:41.139Z,1019.3
2017-03-26T02:04:07.246Z,1019.27
2017-03-26T02:04:33.393Z,1019.27
2017-03-26T02:04:59.473Z,1019.26
2017-03-26T02:05:25.577Z,1019.25
2017-03-26T02:05:51.658Z,1019.23
2017-03-26T02:06:17.763Z,1019.26
2017-03-26T02:06:43.843Z,1019.21
2017-03-26T02:07:09.946Z,1019.22
2017-03-26T02:07:36.029Z,1019.18
2017-03-26T02:08:02.133Z,1019.2
2017-03-26T02:08:28.286Z,1019.17
2017-03-26T02:08:54.463Z,1019.17
2017-03-26T02:09:20.610Z,1019.2
2017-03-26T02:09:46.714Z,1019.2
2017-03-26T02:10:12.817Z,1019.22
2017-03-26T02:10:38.920Z,1019.22
2017-03-26T02:11:04.999Z,1019.23
2017-03-26T02:11:31.079Z,1019.22
2017-03-26T02:11:57.163Z,1019.27
2017-03-26T02:12:23.312Z,1019.25
2017-03-26T02:12:49.433Z,1019.3
2017-03-26T02:13:15.559Z,1019.29
2017-03-26T02:13:41.664Z,1019.28
2017-03-26T02:14:07.814Z,1019.23
2017-03-26T02:14:33.984Z,1019.24
2017-03-26T02:15:00.063Z,1019.25
2017-03-26T02:15:26.168Z,1019.24
2017-03-26T02:15:52.317Z,1019.21
2017-03-26T02:16:18.396Z,1019.21
2017-03-26T02:16:44.526Z,1019.23
2017-03-26T02:17:10.607Z,1019.23
2017-03-26T02:17:36.731Z,1019.23
2017-03-26T02:18:02.859Z,1019.26
2017-03-26T02:18:29.031Z,1019.24
2017-03-26T02:18:55.178Z,1019.27
2017-03-26T02:19:21.305Z,1019.24
2017-03-26T02:19:47.383Z,1019.28
2017-03-26T02:20:13.488Z,1019.26
2017-03-26T02:20:39.592Z,1019.25
2017-03-26T02:21:05.672Z,1019.23
2017-03-26T02:21:31.789Z,1019.2
2017-03-26T02:21:57.872Z,1019.22
2017-03-26T02:22:23.962Z,1019.2
2017-03-26T02:22:50.081Z,1019.19
2017-03-26T02:23:16.206Z,1019.22
2017-03-26T02:23:42.385Z,1019.18
2017-03-26T02:24:08.553Z,1019.2
2017-03-26T02:24:34.703Z,1019.21
2017-03-26T02:25:00.804Z,1019.2
2017-03-26T02:25:26.932Z,1019.21
2017-03-26T02:25:53.033Z,1019.24
2017-03-26T02:26:19.115Z,1019.27
2017-03-26T02:26:45.194Z,1019.26
2017-03-26T02:27:11.275Z,1019.25
2017-03-26T02:27:37.359Z,1019.19
2017-03-26T02:28:03.462Z,1019.24
2017-03-26T02:28:29.563Z,1019.2
2017-03-26T02:28:55.713Z,1019.18
2017-03-26T02:29:21.842Z,1019.18
2017-03-26T02:29:47.923Z,1019.22
2017-03-26T02:30:14.071Z,1019.24
2017-03-26T02:30:40.180Z,1019.21
2017-03-26T02:31:06.328Z,1019.23
2017-03-26T02:31:32.434Z,1019.22
2017-03-26T02:31:58.514Z,1019.2
2017-03-26T02:32:24.593Z,1019.19
2017-03-26T02:32:50.719Z,1019.19
2017-03-26T02:33:16.847Z,1019.14
2017-03-26T02:33:42.930Z,1019.22
2017-03-26T02:34:09.079Z,1019.15
2017-03-26T02:34:35.227Z,1019.2
2017-03-26T02:35:01.382Z,1019.17
2017-03-26T02:35:27.461Z,1019.17
2017-03-26T02:35:53.538Z,1019.2
2017-03-26T02:36:19.639Z,1019.23
2017-03-26T02:36:45.720Z,1019.17
2017-03-26T02:37:11.822Z,1019.2
2017-03-26T02:37:37.950Z,1019.2
2017-03-26T02:38:04.125Z,1019.19
2017-03-26T02:38:30.275Z,1019.16
2017-03-26T02:38:56.446Z,1019.18
2017-03-26T02:39:22.594Z,1019.18
2017-03-26T02:39:48.743Z,1019.17
2017-03-26T02:40:14.847Z,1019.15
2017-03-26T02:40:40.956Z,1019.18
2017-03-26T02:41:07.057Z,1019.26
2017-03-26T02:41:33.137Z,1019.19
2017-03-26T02:41:59.239Z,1019.23
2017-03-26T02:42:25.343Z,1019.26
2017-03-26T02:42:51.470Z,1019.25
2017-03-26T02:43:17.640Z,1019.33
2017-03-26T02:43:43.788Z,1019.31
2017-03-26T02:44:09.939Z,1019.33
2017-03-26T02:44:36.090Z,1019.29
2017-03-26T02:45:02.195Z,1019.3
2017-03-26T02:45:28.300Z,1019.33
2017-03-26T02:45:54.378Z,1019.32
2017-03-26T02:46:20.482Z,1019.37
2017-03-26T02:46:46.608Z,1019.38
2017-03-26T02:47:12.734Z,1019.36
2017-03-26T02:47:38.840Z,1019.33
2017-03-26T02:48:04.940Z,1019.3
2017-03-26T02:48:31.065Z,1019.29
2017-03-26T02:48:57.375Z,1019.3
2017-03-26T02:49:23.524Z,1019.36
2017-03-26T02:49:49.650Z,1019.38
2017-03-26T02:50:15.752Z,1019.35
2017-03-26T02:50:41.833Z,1019.38
2017-03-26T02:51:07.917Z,1019.38
2017-03-26T02:51:34.002Z,1019.37
2017-03-26T02:52:00.130Z,1019.42
2017-03-26T02:52:26.256Z,1019.39
2017-03-26T02:52:52.407Z,1019.37
2017-03-26T02:53:18.579Z,1019.33
2017-03-26T02:53:44.703Z,1019.31
2017-03-26T02:54:10.805Z,1019.32
2017-03-26T02:54:36.906Z,1019.34
2017-03-26T02:55:03.011Z,1019.36
2017-03-26T02:55:29.092Z,1019.32
2017-03-26T02:55:55.171Z,1019.37
2017-03-26T02:56:21.252Z,1019.38
2017-03-26T02:56:47.381Z,1019.42
2017-03-26T02:57:13.506Z,1019.36
2017-03-26T02:57:39.631Z,1019.38
2017-03-26T02:58:05.758Z,1019.35
2017-03-26T02:58:31.888Z,1019.33
2017-03-26T02:58:58.038Z,1019.34
2017-03-26T02:59:24.142Z,1019.33
2017-03-26T02:59:50.250Z,1019.35
2017-03-26T03:00:16.353Z,1019.37
2017-03-26T03:00:42.458Z,1019.33
2017-03-26T03:01:08.566Z,1019.38
2017-03-26T03:01:34.668Z,1019.36
2017-03-26T03:02:00.772Z,1019.33
2017-03-26T03:02:26.854Z,1019.36
2017-03-26T03:02:52.957Z,1019.34
2017-03-26T03:03:19.108Z,1019.36
2017-03-26T03:03:45.259Z,1019.31
2017-03-26T03:04:11.401Z,1019.3
2017-03-26T03:04:37.510Z,1019.36
2017-03-26T03:05:03.679Z,1019.33
2017-03-26T03:05:29.760Z,1019.32
2017-03-26T03:05:55.839Z,1019.34
2017-03-26T03:06:21.945Z,1019.28
2017-03-26T03:06:48.050Z,1019.32
2017-03-26T03:07:14.132Z,1019.29
2017-03-26T03:07:40.281Z,1019.28
2017-03-26T03:08:06.361Z,1019.3
2017-03-26T03:08:32.507Z,1019.28
2017-03-26T03:08:58.654Z,1019.32
2017-03-26T03:09:24.780Z,1019.27
2017-03-26T03:09:50.886Z,1019.3
2017-03-26T03:10:17.058Z,1019.28
2017-03-26T03:10:43.161Z,1019.32
2017-03-26T03:11:09.260Z,1019.28
2017-03-26T03:11:35.346Z,1019.25
2017-03-26T03:12:01.472Z,1019.28
2017-03-26T03:12:27.621Z,1019.25
2017-03-26T03:12:53.773Z,1019.23
2017-03-26T03:13:19.926Z,1019.24
2017-03-26T03:13:46.075Z,1019.21
2017-03-26T03:14:12.253Z,1019.15
2017-03-26T03:14:38.355Z,1019.21
2017-03-26T03:15:04.485Z,1019.18
2017-03-26T03:15:30.595Z,1019.21
2017-03-26T03:15:56.673Z,1019.18
2017-03-26T03:16:22.780Z,1019.18
2017-03-26T03:16:48.861Z,1019.16
2017-03-26T03:17:14.965Z,1019.21
2017-03-26T03:17:41.117Z,1019.18
2017-03-26T03:18:07.243Z,1019.21
2017-03-26T03:18:33.391Z,1019.19
2017-03-26T03:18:59.473Z,1019.16
2017-03-26T03:19:25.623Z,1019.16
2017-03-26T03:19:51.733Z,1019.17
2017-03-26T03:20:17.814Z,1019.15
2017-03-26T03:20:43.918Z,1019.14
2017-03-26T03:21:10.044Z,1019.12
2017-03-26T03:21:36.120Z,1019.1
2017-03-26T03:22:02.226Z,1019.08
2017-03-26T03:22:28.332Z,1019.11
2017-03-26T03:22:54.430Z,1019.12
2017-03-26T03:23:20.582Z,1019.07
2017-03-26T03:23:46.751Z,1019.05
2017-03-26T03:24:12.874Z,1019.07
2017-03-26T03:24:38.978Z,1019.12
2017-03-26T03:25:05.111Z,1019.08
2017-03-26T03:25:31.216Z,1019.08
2017-03-26T03:25:57.301Z,1019.04
2017-03-26T03:26:23.380Z,1019.06
2017-03-26T03:26:49.482Z,1019.07
2017-03-26T03:27:15.583Z,1019.07
2017-03-26T03:27:41.707Z,1019.06
2017-03-26T03:28:07.813Z,1019.05
2017-03-26T03:28:33.966Z,1019.08
2017-03-26T03:29:00.118Z,1019.04
2017-03-26T03:29:26.272Z,1019.11
2017-03-26T03:29:52.402Z,1019.03
2017-03-26T03:30:18.505Z,1019.07
2017-03-26T03:30:44.585Z,1019.07
2017-03-26T03:31:10.666Z,1019.03
2017-03-26T03:31:36.746Z,1018.99
2017-03-26T03:32:02.896Z,1019.04
2017-03-26T03:32:28.980Z,1019.02
2017-03-26T03:32:55.131Z,1019.05
2017-03-26T03:33:21.258Z,1019.04
2017-03-26T03:33:47.395Z,1019.01
2017-03-26T03:34:13.566Z,1019.03
2017-03-26T03:34:39.699Z,1019.02
2017-03-26T03:35:05.841Z,1019.02
2017-03-26T03:35:31.923Z,1019.07
2017-03-26T03:35:58.002Z,1019.05
2017-03-26T03:36:24.105Z,1019.04
2017-03-26T03:36:50.184Z,1018.99
2017-03-26T03:37:16.267Z,1019.04
2017-03-26T03:37:42.395Z,1019
2017-03-26T03:38:08.522Z,1018.98
2017-03-26T03:38:34.646Z,1019.02
2017-03-26T03:39:00.819Z,1019
2017-03-26T03:39:26.920Z,1019.01
2017-03-26T03:39:53.027Z,1019.02
2017-03-26T03:40:19.153Z,1019.01
2017-03-26T03:40:45.237Z,1019
2017-03-26T03:41:11.316Z,1018.96
2017-03-26T03:41:37.396Z,1018.96
2017-03-26T03:42:03.505Z,1018.97
2017-03-26T03:42:29.604Z,1019
2017-03-26T03:42:55.738Z,1019.01
2017-03-26T03:43:21.885Z,1018.99
2017-03-26T03:43:48.066Z,1018.97
2017-03-26T03:44:14.209Z,1018.98
2017-03-26T03:44:40.361Z,1018.98
2017-03-26T03:45:06.463Z,1019
2017-03-26T03:45:32.542Z,1019
2017-03-26T03:45:58.647Z,1018.97
2017-03-26T03:46:24.747Z,1019.02
2017-03-26T03:46:50.851Z,1018.99
2017-03-26T03:47:16.930Z,1019.01
2017-03-26T03:47:43.057Z,1019.04
2017-03-26T03:48:09.160Z,1019.02
2017-03-26T03:48:35.310Z,1019.02
2017-03-26T03:49:01.434Z,1019
2017-03-26T03:49:27.584Z,1019.03
2017-03-26T03:49:53.694Z,1019.04
2017-03-26T03:50:19.819Z,1019.04
2017-03-26T03:50:45.945Z,1019.04
2017-03-26T03:51:12.067Z,1019.03
2017-03-26T03:51:38.154Z,1019.04
2017-03-26T03:52:04.229Z,1019.05
2017-03-26T03:52:30.357Z,1019.05
2017-03-26T03:52:56.483Z,1019.1
2017-03-26T03:53:22.610Z,1019.09
2017-03-26T03:53:48.782Z,1019.08
2017-03-26T03:54:14.927Z,1019.07
2017-03-26T03:54:41.075Z,1019.09
2017-03-26T03:55:07.199Z,1019.08
2017-03-26T03:55:33.282Z,1019.13
2017-03-26T03:55:59.363Z,1019.09
2017-03-26T03:56:25.490Z,1019.06
2017-03-26T03:56:51.614Z,1019.09
2017-03-26T03:57:17.696Z,1019.1
2017-03-26T03:57:43.820Z,1019.11
2017-03-26T03:58:09.973Z,1019.08
2017-03-26T03:58:36.120Z,1019.09
2017-03-26T03:59:02.271Z,1019.12
2017-03-26T03:59:28.376Z,1019.12
2017-03-26T03:59:54.548Z,1019.16
2017-03-26T04:00:20.676Z,1019.11
2017-03-26T04:00:46.755Z,1019.1
2017-03-26T04:01:12.862Z,1019.08
2017-03-26T04:01:38.942Z,1019.11
2017-03-26T04:02:05.048Z,1019.13
2017-03-26T04:02:31.148Z,1019.08
2017-03-26T04:02:57.277Z,1019.13
2017-03-26T04:03:23.678Z,1019.09
2017-03-26T04:03:49.801Z,1019.08
2017-03-26T04:04:15.954Z,1019.13
2017-03-26T04:04:42.105Z,1019.14
2017-03-26T04:05:08.235Z,1019.11
2017-03-26T04:05:34.339Z,1019.12
2017-03-26T04:06:00.442Z,1019.12
2017-03-26T04:06:26.548Z,1019.13
2017-03-26T04:06:52.628Z,1019.12
2017-03-26T04:07:18.709Z,1019.09
2017-03-26T04:07:44.836Z,1019.12
2017-03-26T04:08:10.942Z,1019.12
2017-03-26T04:08:37.087Z,1019.11
2017-03-26T04:09:03.238Z,1019.17
2017-03-26T04:09:29.365Z,1019.14
2017-03-26T04:09:55.467Z,1019.12
2017-03-26T04:10:21.570Z,1019.16
2017-03-26T04:10:47.652Z,1019.13
2017-03-26T04:11:13.756Z,1019.15
2017-03-26T04:11:39.882Z,1019.14
2017-03-26T04:12:05.963Z,1019.12
2017-03-26T04:12:32.088Z,1019.13
2017-03-26T04:12:58.212Z,1019.13
2017-03-26T04:13:24.321Z,1019.1
2017-03-26T04:13:50.401Z,1019.15
2017-03-26T04:14:16.503Z,1019.12
2017-03-26T04:14:42.610Z,1019.14
2017-03-26T04:15:08.732Z,1019.15
2017-03-26T04:15:34.814Z,1019.16
2017-03-26T04:16:00.942Z,1019.17
2017-03-26T04:16:27.052Z,1019.21
2017-03-26T04:16:53.142Z,1019.17
2017-03-26T04:17:19.249Z,1019.17
2017-03-26T04:17:45.352Z,1019.16
2017-03-26T04:18:11.432Z,1019.15
2017-03-26T04:18:37.556Z,1019.2
2017-03-26T04:19:03.680Z,1019.19
2017-03-26T04:19:29.809Z,1019.17
2017-03-26T04:19:55.889Z,1019.19
2017-03-26T04:20:21.994Z,1019.21
2017-03-26T04:20:48.073Z,1019.17
2017-03-26T04:21:14.198Z,1019.17
2017-03-26T04:21:40.301Z,1019.2
2017-03-26T04:22:06.403Z,1019.2
2017-03-26T04:22:32.482Z,1019.19
2017-03-26T04:22:58.634Z,1019.12
2017-03-26T04:23:24.781Z,1019.17
2017-03-26T04:23:50.931Z,1019.09
2017-03-26T04:24:17.103Z,1019.13
2017-03-26T04:24:43.163Z,1019.18
2017-03-26T04:25:09.313Z,1019.19
2017-03-26T04:25:35.395Z,1019.14
2017-03-26T04:26:01.549Z,1019.11
2017-03-26T04:26:27.652Z,1019.11
2017-03-26T04:26:53.756Z,1019.13
2017-03-26T04:27:19.859Z,1019.15
2017-03-26T04:27:45.986Z,1019.15
2017-03-26T04:28:12.110Z,1019.19
2017-03-26T04:28:38.287Z,1019.15
2017-03-26T04:29:04.391Z,1019.19
2017-03-26T04:29:30.515Z,1019.16
2017-03-26T04:29:56.702Z,1019.16
2017-03-26T04:30:22.751Z,1019.17
2017-03-26T04:30:48.832Z,1019.18
2017-03-26T04:31:14.910Z,1019.16
2017-03-26T04:31:41.036Z,1019.19
2017-03-26T04:32:07.141Z,1019.13
2017-03-26T04:32:33.266Z,1019.15
2017-03-26T04:32:59.413Z,1019.18
2017-03-26T04:33:25.907Z,1019.15
2017-03-26T04:33:52.035Z,1019.16
2017-03-26T04:34:18.185Z,1019.15
2017-03-26T04:34:44.287Z,1019.17
2017-03-26T04:35:10.437Z,1019.14
2017-03-26T04:35:36.519Z,1019.16
2017-03-26T04:36:02.621Z,1019.15
2017-03-26T04:36:28.701Z,1019.13
2017-03-26T04:36:54.802Z,1019.16
2017-03-26T04:37:20.886Z,1019.15
2017-03-26T04:37:47.007Z,1019.11
2017-03-26T04:38:13.160Z,1019.14
2017-03-26T04:38:39.335Z,1019.11
2017-03-26T04:39:05.460Z,1019.13
2017-03-26T04:39:31.586Z,1019.08
2017-03-26T04:39:57.693Z,1019.11
2017-03-26T04:40:23.791Z,1019.09
2017-03-26T04:40:49.872Z,1019.09
2017-03-26T04:41:15.954Z,1019.07
2017-03-26T04:41:42.058Z,1019.02
2017-03-26T04:42:08.180Z,1019.02
2017-03-26T04:42:34.307Z,1019.02
2017-03-26T04:43:00.432Z,1018.97
2017-03-26T04:43:26.585Z,1018.99
2017-03-26T04:43:52.688Z,1018.94
2017-03-26T04:44:18.837Z,1018.97
2017-03-26T04:44:44.940Z,1018.96
2017-03-26T04:45:11.019Z,1018.94
2017-03-26T04:45:37.100Z,1018.96
2017-03-26T04:46:03.182Z,1018.9
2017-03-26T04:46:29.284Z,1018.94
2017-03-26T04:46:55.386Z,1018.94
2017-03-26T04:47:21.514Z,1018.94
2017-03-26T04:47:47.642Z,1018.94
2017-03-26T04:48:13.770Z,1018.94
2017-03-26T04:48:39.897Z,1018.92
2017-03-26T04:49:06.023Z,1018.95
2017-03-26T04:49:32.166Z,1018.95
2017-03-26T04:49:58.269Z,1018.96
2017-03-26T04:50:24.396Z,1018.98
2017-03-26T04:50:50.499Z,1019
2017-03-26T04:51:16.605Z,1019.01
2017-03-26T04:51:42.729Z,1019.03
2017-03-26T04:52:08.806Z,1019.06
2017-03-26T04:52:34.935Z,1019.01
2017-03-26T04:53:01.064Z,1019.05
2017-03-26T04:53:27.191Z,1019.09
2017-03-26T04:53:53.343Z,1019.07
2017-03-26T04:54:19.421Z,1019.07
2017-03-26T04:54:45.525Z,1019.03
2017-03-26T04:55:11.673Z,1019.07
2017-03-26T04:55:37.778Z,1019.04
2017-03-26T04:56:03.882Z,1019.04
2017-03-26T04:56:30.009Z,1019.04
2017-03-26T04:56:56.090Z,1019.06
2017-03-26T04:57:22.217Z,1019.04
2017-03-26T04:57:48.366Z,1019.03
2017-03-26T04:58:14.513Z,1019.03
2017-03-26T04:58:40.663Z,1019.03
2017-03-26T04:59:06.787Z,1019.04
2017-03-26T04:59:32.914Z,1019.05
2017-03-26T04:59:59.021Z,1019.01
2017-03-26T05:00:25.099Z,1018.98
2017-03-26T05:00:51.199Z,1019.01
2017-03-26T05:01:17.283Z,1019.01
2017-03-26T05:01:43.387Z,1018.98
2017-03-26T05:02:09.465Z,1018.95
2017-03-26T05:02:35.547Z,1018.94
2017-03-26T05:03:01.651Z,1018.94
2017-03-26T05:03:27.758Z,1018.97
2017-03-26T05:03:53.909Z,1018.94
2017-03-26T05:04:20.081Z,1018.93
2017-03-26T05:04:46.234Z,1018.93
2017-03-26T05:05:12.290Z,1018.91
2017-03-26T05:05:38.394Z,1018.88
2017-03-26T05:06:04.522Z,1018.95
2017-03-26T05:06:30.626Z,1018.95
2017-03-26T05:06:56.706Z,1018.94
2017-03-26T05:07:22.829Z,1018.94
2017-03-26T05:07:48.956Z,1018.87
2017-03-26T05:08:15.082Z,1018.91
2017-03-26T05:08:41.183Z,1018.89
2017-03-26T05:09:07.333Z,1018.88
2017-03-26T05:09:33.461Z,1018.95
2017-03-26T05:09:59.568Z,1018.92
2017-03-26T05:10:25.669Z,1018.89
2017-03-26T05:10:51.773Z,1018.89
2017-03-26T05:11:17.899Z,1018.88
2017-03-26T05:11:43.976Z,1018.88
2017-03-26T05:12:10.102Z,1018.86
2017-03-26T05:12:36.211Z,1018.88
2017-03-26T05:13:02.359Z,1018.85
2017-03-26T05:13:28.486Z,1018.89
2017-03-26T05:13:54.638Z,1018.87
2017-03-26T05:14:20.812Z,1018.9
2017-03-26T05:14:46.911Z,1018.93
2017-03-26T05:15:13.016Z,1018.95
2017-03-26T05:15:39.097Z,1018.95
2017-03-26T05:16:05.178Z,1018.92
2017-03-26T05:16:31.257Z,1018.95
2017-03-26T05:16:57.343Z,1018.96
2017-03-26T05:17:23.449Z,1018.95